Weather at Martindale Army Heliport

Public forecast

Using degrees Fahrenheit for public forecast. Weather courtesy of forecast.io.

Closest aviation weather report (METAR) to Martindale Army Heliport

Closest report is Stinson Municipal Airport, 7.5 nm (13.8 km) SW.

2024/05/30 12:07 (retrieved 29 minutes ago)

KSSF 301207Z 14010KT 10SM BKN014 OVC030 26/24 A2992 RMK AO2 T02610239

Closest aviation forecast (TAF) to Martindale Army Heliport

Closest forecast is Stinson Municipal Airport, 7.5 nm (13.8 km) SW.

2024/05/30 12:22 (retrieved 14 minutes ago)

TAF KSSF 301120Z 3012/3112 15008KT P6SM BKN015 FM301600 15017KT P6SM SCT050 FM310200 12015G25KT P6SM BKN050 FM310500 16009KT P6SM OVC015 PROB30 3111/3112 -TSRA OVC010CB